createdAt,value
2023-01-11T00:02:16.626Z,2.80
2023-01-11T00:04:43.785Z,2.43
2023-01-11T00:07:10.847Z,2.70
2023-01-11T00:09:37.926Z,2.70
2023-01-11T00:12:05.014Z,1.93
2023-01-11T00:14:32.073Z,2.33
2023-01-11T00:16:59.874Z,2.80
2023-01-11T00:19:27.058Z,2.47
2023-01-11T00:21:54.110Z,2.30
2023-01-11T00:24:21.227Z,2.43
2023-01-11T00:26:48.288Z,2.27
2023-01-11T00:29:15.368Z,2.20
2023-01-11T00:31:42.454Z,2.47
2023-01-11T00:34:09.584Z,2.30
2023-01-11T00:36:36.628Z,1.97
2023-01-11T00:39:03.723Z,2.33
2023-01-11T00:41:49.383Z,2.30
2023-01-11T00:44:35.227Z,2.07
2023-01-11T00:47:21.173Z,1.80
2023-01-11T00:49:48.326Z,2.43
2023-01-11T00:52:15.436Z,1.87
2023-01-11T00:54:42.556Z,2.10
2023-01-11T00:57:10.005Z,2.03
2023-01-11T00:59:39.462Z,2.00
2023-01-11T01:02:06.801Z,2.10
2023-01-11T01:04:33.946Z,2.40
2023-01-11T01:07:01.010Z,1.80
2023-01-11T01:09:28.394Z,2.07
2023-01-11T01:11:55.532Z,1.80
2023-01-11T01:14:25.820Z,2.13
2023-01-11T01:16:53.616Z,1.90
2023-01-11T01:19:22.252Z,1.70
2023-01-11T01:21:50.170Z,1.80
2023-01-11T01:24:17.396Z,1.60
2023-01-11T01:26:44.483Z,1.67
2023-01-11T01:29:11.919Z,1.90
2023-01-11T01:31:39.050Z,1.63
2023-01-11T01:34:06.576Z,1.77
2023-01-11T01:36:33.979Z,1.70
2023-01-11T01:39:01.185Z,1.53
2023-01-11T01:41:28.653Z,1.70
2023-01-11T01:43:57.093Z,1.50
2023-01-11T01:46:27.136Z,1.50
2023-01-11T01:48:56.374Z,1.60
2023-01-11T01:51:26.624Z,1.37
2023-01-11T01:53:55.606Z,1.70
2023-01-11T01:56:44.747Z,1.47
2023-01-11T01:59:13.056Z,1.50
2023-01-11T02:01:49.964Z,1.63
2023-01-11T02:04:35.738Z,1.57
2023-01-11T02:07:04.460Z,1.70
2023-01-11T02:09:37.416Z,1.73
2023-01-11T02:12:05.301Z,1.97
2023-01-11T02:14:32.777Z,1.30
2023-01-11T02:16:59.886Z,2.03
2023-01-11T02:19:45.305Z,1.63
2023-01-11T02:22:30.945Z,1.83
2023-01-11T02:24:58.622Z,1.70
2023-01-11T02:27:25.648Z,1.80
2023-01-11T02:30:13.635Z,1.87
2023-01-11T02:32:59.167Z,1.70
2023-01-11T02:35:29.571Z,2.03
2023-01-11T02:38:05.768Z,2.00
2023-01-11T02:40:48.364Z,1.90
2023-01-11T02:43:57.031Z,1.90
2023-01-11T02:46:43.566Z,2.17
2023-01-11T02:49:25.053Z,2.00
2023-01-11T02:51:56.528Z,1.97
2023-01-11T02:54:24.147Z,1.63
2023-01-11T02:56:53.639Z,2.17
2023-01-11T02:59:24.634Z,1.83
2023-01-11T03:01:53.200Z,1.67
2023-01-11T03:04:26.328Z,1.70
2023-01-11T03:07:13.635Z,2.30
2023-01-11T03:09:43.529Z,1.63
2023-01-11T03:12:31.871Z,1.93
2023-01-11T03:15:01.740Z,1.70
2023-01-11T03:17:47.358Z,2.07
2023-01-11T03:20:32.275Z,2.00
2023-01-11T03:22:59.302Z,1.87
2023-01-11T03:25:32.075Z,1.77
2023-01-11T03:28:06.059Z,1.77
2023-01-11T03:30:36.236Z,1.80
2023-01-11T03:33:09.824Z,1.77
2023-01-11T03:35:42.310Z,1.87
2023-01-11T03:38:25.535Z,2.00
2023-01-11T03:40:56.085Z,1.83
2023-01-11T03:43:24.601Z,1.60
2023-01-11T03:45:57.596Z,1.67
2023-01-11T03:48:37.136Z,1.40
2023-01-11T03:51:06.241Z,1.67
2023-01-11T03:53:36.048Z,1.60
2023-01-11T03:56:04.966Z,1.80
2023-01-11T03:58:32.056Z,1.80
2023-01-11T04:00:59.543Z,1.80
2023-01-11T04:03:28.210Z,1.87
2023-01-11T04:05:58.102Z,1.73
2023-01-11T04:08:25.202Z,1.70
2023-01-11T04:10:52.547Z,1.77
2023-01-11T04:13:19.576Z,1.60
2023-01-11T04:15:46.690Z,1.57
2023-01-11T04:18:13.727Z,2.03
2023-01-11T04:20:41.490Z,1.77
2023-01-11T04:23:10.291Z,1.40
2023-01-11T04:25:37.352Z,1.60
2023-01-11T04:28:04.449Z,1.73
2023-01-11T04:30:31.850Z,1.50
2023-01-11T04:32:59.441Z,1.60
2023-01-11T04:35:26.837Z,1.40
2023-01-11T04:37:57.551Z,1.57
2023-01-11T04:40:25.416Z,1.50
2023-01-11T04:42:52.732Z,1.70
2023-01-11T04:45:19.907Z,1.60
2023-01-11T04:47:47.058Z,1.70
2023-01-11T04:50:14.205Z,1.40
2023-01-11T04:52:41.718Z,1.60
2023-01-11T04:55:09.351Z,1.50
2023-01-11T04:57:36.882Z,1.70
2023-01-11T05:00:10.721Z,1.67
2023-01-11T05:02:38.406Z,1.43
2023-01-11T05:05:06.148Z,1.40
2023-01-11T05:07:33.362Z,1.63
2023-01-11T05:10:00.491Z,1.60
2023-01-11T05:12:27.534Z,1.43
2023-01-11T05:14:54.684Z,1.70
2023-01-11T05:17:21.746Z,1.70
2023-01-11T05:19:48.824Z,1.90
2023-01-11T05:22:15.871Z,1.77
2023-01-11T05:24:42.957Z,1.80
2023-01-11T05:27:10.091Z,1.50
2023-01-11T05:29:37.169Z,1.70
2023-01-11T05:32:04.329Z,1.30
2023-01-11T05:34:31.425Z,1.77
2023-01-11T05:36:58.484Z,1.73
2023-01-11T05:39:25.653Z,1.90
2023-01-11T05:41:52.790Z,1.70
2023-01-11T05:44:38.535Z,1.60
2023-01-11T05:47:05.769Z,1.70
2023-01-11T05:49:32.842Z,1.50
2023-01-11T05:51:59.929Z,1.67
2023-01-11T05:54:27.073Z,1.40
2023-01-11T05:56:56.769Z,1.53
2023-01-11T05:59:23.953Z,2.00
2023-01-11T06:01:51.196Z,1.73
2023-01-11T06:04:18.273Z,1.80
2023-01-11T06:06:45.428Z,1.70
2023-01-11T06:09:12.492Z,1.63
2023-01-11T06:11:39.571Z,1.50
2023-01-11T06:14:06.680Z,1.87
2023-01-11T06:16:33.769Z,1.63
2023-01-11T06:19:00.898Z,1.77
2023-01-11T06:21:28.019Z,1.53
2023-01-11T06:23:55.383Z,1.80
2023-01-11T06:26:23.073Z,1.30
2023-01-11T06:28:50.701Z,1.70
2023-01-11T06:31:18.508Z,1.53
2023-01-11T06:33:46.180Z,2.07
2023-01-11T06:36:13.712Z,1.63
2023-01-11T06:38:41.131Z,2.00
2023-01-11T06:41:08.834Z,1.67
2023-01-11T06:43:36.417Z,1.80
2023-01-11T06:46:03.568Z,2.07
2023-01-11T06:48:30.679Z,1.70
2023-01-11T06:50:58.423Z,1.77
2023-01-11T06:53:28.406Z,1.77
2023-01-11T06:55:56.742Z,1.90
2023-01-11T06:58:24.680Z,1.80
2023-01-11T07:00:52.947Z,1.80
2023-01-11T07:03:24.362Z,2.03
2023-01-11T07:05:52.149Z,2.30
2023-01-11T07:08:19.457Z,2.10
2023-01-11T07:10:46.512Z,1.97
2023-01-11T07:13:16.202Z,2.00
2023-01-11T07:15:43.841Z,1.87
2023-01-11T07:18:11.502Z,2.00
2023-01-11T07:20:38.653Z,2.33
2023-01-11T07:23:07.640Z,1.90
2023-01-11T07:25:34.976Z,2.30
2023-01-11T07:28:03.154Z,2.07
2023-01-11T07:30:31.017Z,2.00
2023-01-11T07:32:59.357Z,2.00
2023-01-11T07:35:28.204Z,2.03
2023-01-11T07:37:56.127Z,1.93
2023-01-11T07:40:23.199Z,1.97
2023-01-11T07:43:09.617Z,1.90
2023-01-11T07:45:45.471Z,2.10
2023-01-11T07:48:13.528Z,2.23
2023-01-11T07:50:44.249Z,2.13
2023-01-11T07:53:12.247Z,1.93
2023-01-11T07:55:39.835Z,2.00
2023-01-11T07:58:07.634Z,1.90
2023-01-11T08:00:34.843Z,1.50
2023-01-11T08:03:02.393Z,1.63
2023-01-11T08:05:29.620Z,1.93
2023-01-11T08:07:56.706Z,1.60
2023-01-11T08:10:23.840Z,1.90
2023-01-11T08:13:09.631Z,1.60
2023-01-11T08:15:36.974Z,1.73
2023-01-11T08:18:06.346Z,1.53
2023-01-11T08:20:33.446Z,1.50
2023-01-11T08:23:04.498Z,1.90
2023-01-11T08:25:31.914Z,1.90
2023-01-11T08:28:02.920Z,1.93
2023-01-11T08:30:30.268Z,1.70
2023-01-11T08:32:57.676Z,1.70
2023-01-11T08:35:27.800Z,2.00
2023-01-11T08:37:54.881Z,2.10
2023-01-11T08:40:24.071Z,1.70
2023-01-11T08:42:55.525Z,1.30
2023-01-11T08:45:22.558Z,1.67
2023-01-11T08:47:51.359Z,1.80
2023-01-11T08:50:18.781Z,1.70
2023-01-11T08:52:46.722Z,1.83
2023-01-11T08:55:14.001Z,1.77
2023-01-11T08:57:41.066Z,1.83
2023-01-11T09:00:08.510Z,1.77
2023-01-11T09:02:35.751Z,1.93
2023-01-11T09:05:02.976Z,1.83
2023-01-11T09:07:30.074Z,1.90
2023-01-11T09:09:57.216Z,1.90
2023-01-11T09:12:24.518Z,2.00
2023-01-11T09:14:51.791Z,1.83
2023-01-11T09:17:18.854Z,2.20
2023-01-11T09:19:45.965Z,2.00
2023-01-11T09:22:13.023Z,2.20
2023-01-11T09:24:40.140Z,2.43
2023-01-11T09:27:07.262Z,2.00
2023-01-11T09:29:36.998Z,2.03
2023-01-11T09:32:04.520Z,2.23
2023-01-11T09:34:31.739Z,2.03
2023-01-11T09:37:02.505Z,2.10
2023-01-11T09:39:29.628Z,2.00
2023-01-11T09:42:11.272Z,1.73
2023-01-11T09:44:46.223Z,2.03
2023-01-11T09:47:18.919Z,1.80
2023-01-11T09:49:51.952Z,1.60
2023-01-11T09:52:30.359Z,2.00
2023-01-11T09:54:58.883Z,2.07
2023-01-11T09:57:32.761Z,2.13
2023-01-11T10:00:17.301Z,1.90
2023-01-11T10:02:44.371Z,1.90
2023-01-11T10:05:19.399Z,1.83
2023-01-11T10:07:54.018Z,2.10
2023-01-11T10:18:40.560Z,1.83
2023-01-11T10:19:40.199Z,2.40
2023-01-11T10:22:09.489Z,1.97
2023-01-11T10:24:41.932Z,2.10
2023-01-11T10:27:30.016Z,2.23
2023-01-11T10:30:28.526Z,2.00
2023-01-11T10:33:25.498Z,1.90
2023-01-11T10:36:15.872Z,1.73
2023-01-11T10:39:13.656Z,1.80
2023-01-11T10:42:13.138Z,1.87
2023-01-11T10:44:47.094Z,1.70
2023-01-11T10:47:17.067Z,1.90
2023-01-11T10:50:16.736Z,2.17
2023-01-11T10:52:53.581Z,1.77
2023-01-11T10:55:25.503Z,1.80
2023-01-11T10:58:15.421Z,1.70
2023-01-11T11:01:08.681Z,1.50
2023-01-11T11:03:48.036Z,1.70
2023-01-11T11:06:15.050Z,1.93
2023-01-11T11:08:51.325Z,1.70
2023-01-11T11:11:27.345Z,1.43
2023-01-11T11:14:08.828Z,1.80
2023-01-11T11:16:42.073Z,1.90
2023-01-11T11:19:11.223Z,1.73
2023-01-11T11:21:39.859Z,1.77
2023-01-11T11:24:27.584Z,1.77
2023-01-11T11:26:58.987Z,1.90
2023-01-11T11:29:30.544Z,2.10
2023-01-11T11:31:59.449Z,2.00
2023-01-11T11:34:27.791Z,2.07
2023-01-11T11:36:55.343Z,2.20
2023-01-11T11:39:22.415Z,1.80
2023-01-11T11:41:50.917Z,2.10
2023-01-11T11:44:24.238Z,2.20
2023-01-11T11:47:01.471Z,2.20
2023-01-11T11:49:29.691Z,2.10
2023-01-11T11:51:57.496Z,2.40
2023-01-11T11:54:27.710Z,2.50
2023-01-11T11:56:56.164Z,2.47
2023-01-11T11:59:24.833Z,2.33
2023-01-11T12:02:05.629Z,2.37
2023-01-11T12:04:41.766Z,2.50
2023-01-11T12:07:25.597Z,2.60
2023-01-11T12:10:13.456Z,2.43
2023-01-11T12:12:50.401Z,2.60
2023-01-11T12:15:20.542Z,2.80
2023-01-11T12:17:48.019Z,2.33
2023-01-11T12:20:24.102Z,2.70
2023-01-11T12:22:51.804Z,2.50
2023-01-11T12:25:18.911Z,2.40
2023-01-11T12:27:55.334Z,2.37
2023-01-11T12:30:25.577Z,2.47
2023-01-11T12:32:52.693Z,2.70
2023-01-11T12:35:22.970Z,2.37
2023-01-11T12:38:02.169Z,2.40
2023-01-11T12:40:44.786Z,2.57
2023-01-11T12:43:20.779Z,2.40
2023-01-11T12:45:47.877Z,2.53
2023-01-11T12:48:24.291Z,2.50
2023-01-11T12:50:57.331Z,2.50
2023-01-11T12:53:27.186Z,2.43
2023-01-11T12:55:57.171Z,2.57
2023-01-11T12:58:44.513Z,2.47
2023-01-11T13:01:14.402Z,2.60
2023-01-11T13:04:00.143Z,2.47
2023-01-11T13:06:40.336Z,2.40
2023-01-11T13:09:16.862Z,2.27
2023-01-11T13:11:59.576Z,2.27
2023-01-11T13:14:39.349Z,2.50
2023-01-11T13:17:12.314Z,2.50
2023-01-11T13:19:51.129Z,2.40
2023-01-11T13:22:23.951Z,2.37
2023-01-11T13:24:51.635Z,2.13
2023-01-11T13:27:22.453Z,2.40
2023-01-11T13:29:51.790Z,2.20
2023-01-11T13:32:23.828Z,2.23
2023-01-11T13:34:56.488Z,2.37
2023-01-11T13:37:28.297Z,2.30
2023-01-11T13:39:58.282Z,2.40
2023-01-11T13:42:27.967Z,2.10
2023-01-11T13:45:00.585Z,2.57
2023-01-11T13:47:33.481Z,2.43
2023-01-11T13:50:19.205Z,2.33
2023-01-11T13:52:54.745Z,2.23
2023-01-11T13:55:40.205Z,2.20
2023-01-11T13:58:17.344Z,2.40
2023-01-11T14:00:44.383Z,2.50
2023-01-11T14:03:18.846Z,2.40
2023-01-11T14:06:08.922Z,2.40
2023-01-11T14:09:02.105Z,2.30
2023-01-11T14:11:29.146Z,2.40
2023-01-11T14:14:19.522Z,2.30
2023-01-11T14:17:05.471Z,2.50
2023-01-11T14:19:41.698Z,2.37
2023-01-11T14:22:17.555Z,2.30
2023-01-11T14:24:56.160Z,2.37
2023-01-11T14:27:41.883Z,2.40
2023-01-11T14:30:21.799Z,2.30
2023-01-11T14:32:57.957Z,2.37
2023-01-11T14:35:25.016Z,2.47
2023-01-11T14:37:52.072Z,2.33
2023-01-11T14:40:19.226Z,2.43
2023-01-11T14:43:15.601Z,2.30
2023-01-11T14:46:01.646Z,2.73
2023-01-11T14:48:36.876Z,2.50
2023-01-11T14:51:32.656Z,2.30
2023-01-11T14:54:21.219Z,2.30
2023-01-11T14:56:50.120Z,2.30
2023-01-11T14:59:29.497Z,2.40
2023-01-11T15:02:05.546Z,2.53
2023-01-11T15:04:32.724Z,2.20
2023-01-11T15:07:00.338Z,2.67
2023-01-11T15:09:43.780Z,3.10
2023-01-11T15:12:12.181Z,2.90
2023-01-11T15:14:39.376Z,2.40
2023-01-11T15:17:25.401Z,2.63
2023-01-11T15:19:53.269Z,2.57
2023-01-11T15:22:30.687Z,2.53
2023-01-11T15:25:02.529Z,2.57
2023-01-11T15:27:34.505Z,2.50
2023-01-11T15:30:02.070Z,2.30
2023-01-11T15:32:30.645Z,2.40
2023-01-11T15:35:16.334Z,2.70
2023-01-11T15:37:49.903Z,2.80
2023-01-11T15:40:21.661Z,2.50
2023-01-11T15:43:00.538Z,2.50
2023-01-11T15:45:30.388Z,3.30
2023-01-11T15:48:04.352Z,2.97
2023-01-11T15:50:50.229Z,2.80
2023-01-11T15:53:36.204Z,3.00
2023-01-11T15:56:16.755Z,2.43
2023-01-11T15:58:43.837Z,2.90
2023-01-11T16:01:20.155Z,3.30
2023-01-11T16:03:58.949Z,3.30
2023-01-11T16:06:30.488Z,3.00
2023-01-11T16:08:57.557Z,2.97
2023-01-11T16:11:39.736Z,2.93
2023-01-11T16:14:15.670Z,3.17
2023-01-11T16:16:43.924Z,3.10
2023-01-11T16:19:17.056Z,2.87
2023-01-11T16:21:47.204Z,2.90
2023-01-11T16:24:26.687Z,2.60
2023-01-11T16:26:55.759Z,3.00
2023-01-11T16:29:41.108Z,2.80
2023-01-11T16:32:18.825Z,3.00
2023-01-11T16:34:50.196Z,2.90
2023-01-11T16:37:20.005Z,2.40
2023-01-11T16:39:49.343Z,2.60
2023-01-11T16:42:16.627Z,2.87
2023-01-11T16:44:46.927Z,2.77
2023-01-11T16:47:18.306Z,2.97
2023-01-11T16:49:49.095Z,3.10
2023-01-11T16:52:28.228Z,2.90
2023-01-11T16:54:56.361Z,3.00
2023-01-11T16:57:28.353Z,2.30
2023-01-11T17:00:02.407Z,2.83
2023-01-11T17:02:32.629Z,2.57
2023-01-11T17:05:00.534Z,2.50
2023-01-11T17:07:29.342Z,2.10
2023-01-11T17:10:15.080Z,1.90
2023-01-11T17:12:44.184Z,2.40
2023-01-11T17:15:23.436Z,2.43
2023-01-11T17:17:50.959Z,1.47
2023-01-11T17:20:20.688Z,1.77
2023-01-11T17:22:50.116Z,2.30
2023-01-11T17:25:21.944Z,2.00
2023-01-11T17:27:50.979Z,1.20
2023-01-11T17:30:19.870Z,1.47
2023-01-11T17:32:48.530Z,1.70
2023-01-11T17:35:17.064Z,1.80
2023-01-11T17:37:48.275Z,1.80
2023-01-11T17:40:22.057Z,1.90
2023-01-11T17:43:08.209Z,2.30
2023-01-11T17:45:35.962Z,2.40
2023-01-11T17:48:14.113Z,2.53
2023-01-11T17:50:49.099Z,2.30
2023-01-11T17:53:17.832Z,2.13
2023-01-11T17:55:51.974Z,1.90
2023-01-11T17:58:31.848Z,2.40
2023-01-11T18:01:07.469Z,2.47
2023-01-11T18:03:43.882Z,1.20
2023-01-11T18:06:14.902Z,1.13
2023-01-11T18:08:46.654Z,1.70
2023-01-11T18:11:21.706Z,1.70
2023-01-11T18:13:51.406Z,1.97
2023-01-11T18:16:19.480Z,2.07
2023-01-11T18:18:47.489Z,1.97
2023-01-11T18:21:43.948Z,1.50
2023-01-11T18:24:11.064Z,1.60
2023-01-11T18:26:39.733Z,1.60
2023-01-11T18:29:06.834Z,1.27
2023-01-11T18:31:33.923Z,1.10
2023-01-11T18:34:01.051Z,1.50
2023-01-11T18:36:29.893Z,1.43
2023-01-11T18:38:57.005Z,1.00
2023-01-11T18:41:44.728Z,1.13
2023-01-11T18:44:12.104Z,1.00
2023-01-11T18:46:39.222Z,0.93
2023-01-11T18:49:06.250Z,1.13
2023-01-11T18:51:40.123Z,1.30
2023-01-11T18:54:07.455Z,1.80
2023-01-11T18:56:34.526Z,1.30
2023-01-11T18:59:01.650Z,1.33
2023-01-11T19:01:33.145Z,1.20
2023-01-11T19:04:00.351Z,1.40
2023-01-11T19:06:28.453Z,1.30
2023-01-11T19:08:55.570Z,1.93
2023-01-11T19:11:25.451Z,1.83
2023-01-11T19:13:52.666Z,1.83
2023-01-11T19:16:19.716Z,1.87
2023-01-11T19:18:47.287Z,1.50
2023-01-11T19:21:14.425Z,1.50
2023-01-11T19:23:41.982Z,2.13
2023-01-11T19:26:09.083Z,1.97
2023-01-11T19:28:37.041Z,2.20
2023-01-11T19:31:07.866Z,1.73
2023-01-11T19:33:35.055Z,2.10
2023-01-11T19:36:06.293Z,1.53
2023-01-11T19:38:33.849Z,1.20
2023-01-11T19:41:05.195Z,1.60
2023-01-11T19:43:32.264Z,1.27
2023-01-11T19:45:59.419Z,2.03
2023-01-11T19:48:31.170Z,1.50
2023-01-11T19:51:02.666Z,1.10
2023-01-11T19:53:30.696Z,1.50
2023-01-11T19:56:01.687Z,1.53
2023-01-11T19:58:28.941Z,2.33
2023-01-11T20:00:56.020Z,1.90
2023-01-11T20:03:23.229Z,2.00
2023-01-11T20:05:50.284Z,2.87
2023-01-11T20:08:17.366Z,2.20
2023-01-11T20:10:44.448Z,1.80
2023-01-11T20:13:11.528Z,1.90
2023-01-11T20:15:38.887Z,2.10
2023-01-11T20:18:06.084Z,2.80
2023-01-11T20:20:33.239Z,2.33
2023-01-11T20:23:00.294Z,2.17
2023-01-11T20:25:27.428Z,2.70
2023-01-11T20:27:55.642Z,2.57
2023-01-11T20:30:22.733Z,2.27
2023-01-11T20:32:49.836Z,2.60
2023-01-11T20:35:16.917Z,2.60
2023-01-11T20:37:43.977Z,2.87
2023-01-11T20:40:13.615Z,2.60
2023-01-11T20:42:41.442Z,2.50
2023-01-11T20:45:08.920Z,2.50
2023-01-11T20:47:36.017Z,2.30
2023-01-11T20:50:03.118Z,2.10
2023-01-11T20:52:30.161Z,2.50
2023-01-11T20:54:57.251Z,2.70
2023-01-11T20:57:24.353Z,3.97
2023-01-11T20:59:52.216Z,3.80
2023-01-11T21:02:19.301Z,3.23
2023-01-11T21:04:46.464Z,3.10
2023-01-11T21:07:13.563Z,3.10
2023-01-11T21:09:40.820Z,2.80
2023-01-11T21:12:09.547Z,2.80
2023-01-11T21:14:36.749Z,2.90
2023-01-11T21:17:03.791Z,2.53
2023-01-11T21:19:31.772Z,2.57
2023-01-11T21:21:58.809Z,2.13
2023-01-11T21:24:25.938Z,2.10
2023-01-11T21:26:53.034Z,2.10
2023-01-11T21:29:20.145Z,2.23
2023-01-11T21:31:47.304Z,1.70
2023-01-11T21:34:14.559Z,2.00
2023-01-11T21:36:41.956Z,1.90
2023-01-11T21:39:09.376Z,1.90
2023-01-11T21:41:55.163Z,2.00
2023-01-11T21:44:31.147Z,2.00
2023-01-11T21:46:58.712Z,1.90
2023-01-11T21:49:25.841Z,1.80
2023-01-11T21:51:53.162Z,1.70
2023-01-11T21:54:20.331Z,2.00
2023-01-11T21:56:47.619Z,2.03
2023-01-11T21:59:15.157Z,1.70
2023-01-11T22:01:43.230Z,2.00
2023-01-11T22:04:11.234Z,1.67
2023-01-11T22:06:39.796Z,1.70
2023-01-11T22:09:07.252Z,1.70
2023-01-11T22:11:34.397Z,1.87
2023-01-11T22:14:06.429Z,1.63
2023-01-11T22:16:33.778Z,1.70
2023-01-11T22:19:01.410Z,1.57
2023-01-11T22:21:29.176Z,1.43
2023-01-11T22:23:57.258Z,1.70
2023-01-11T22:26:24.577Z,1.60
2023-01-11T22:29:14.601Z,1.77
2023-01-11T22:31:43.557Z,1.60
2023-01-11T22:34:11.259Z,1.70
2023-01-11T22:36:38.530Z,1.50
2023-01-11T22:39:06.019Z,1.40
2023-01-11T22:41:33.443Z,1.50
2023-01-11T22:44:00.554Z,1.50
2023-01-11T22:46:28.153Z,1.30
2023-01-11T22:48:55.532Z,1.57
2023-01-11T22:51:24.227Z,1.43
2023-01-11T22:53:51.962Z,1.57
2023-01-11T22:56:19.764Z,1.47
2023-01-11T22:58:47.328Z,1.47
2023-01-11T23:01:15.512Z,1.30
2023-01-11T23:03:43.157Z,1.40
2023-01-11T23:06:10.781Z,1.40
2023-01-11T23:08:40.749Z,1.33
2023-01-11T23:11:13.852Z,1.60
2023-01-11T23:13:54.796Z,1.20
2023-01-11T23:16:22.807Z,1.20
2023-01-11T23:18:50.068Z,1.23
2023-01-11T23:21:17.288Z,1.20
2023-01-11T23:23:44.334Z,1.20
2023-01-11T23:26:17.889Z,1.57
2023-01-11T23:28:45.839Z,0.97
2023-01-11T23:31:16.971Z,1.10
2023-01-11T23:33:44.961Z,0.90
2023-01-11T23:36:12.246Z,1.30
2023-01-11T23:38:39.370Z,1.03
2023-01-11T23:41:26.057Z,1.07
2023-01-11T23:43:53.212Z,1.20
2023-01-11T23:46:38.831Z,1.10
2023-01-11T23:49:06.769Z,1.10
2023-01-11T23:51:34.474Z,1.40
2023-01-11T23:54:02.241Z,0.90
2023-01-11T23:56:30.272Z,1.10
2023-01-11T23:58:57.683Z,0.80
